This is the latest recevied weather packets stored in our database for station/object IW0REF-14. If no packets are shown the sender has not sent any weather packets the latest 1 day(s).
| Time | Temp. | Humidity | Pressure | Rain* | Wind** | Luminosity | Snow |
|---|---|---|---|---|---|---|---|
| 1778089015 | 11.11° C | 74% | 1010.2 hPa | - | - | - | - |
| 1778088115 | 11.11° C | 72% | 1010.2 hPa | - | - | - | - |
| 1778084786 | 11.11° C | 73% | 1010.3 hPa | - | - | - | - |
| 1778083649 | 10.56° C | 73% | 1010.3 hPa | - | - | - | - |
| 1778080014 | 11.67° C | 68% | 1010.5 hPa | - | - | - | - |
| 1778078202 | 12.22° C | 68% | 1010.4 hPa | - | - | - | - |
| 1778077302 | 12.78° C | 66% | 1010.5 hPa | - | - | - | - |
| 1778076402 | 12.78° C | 67% | 1010.3 hPa | - | - | - | - |
| 1778066501 | 12.22° C | 63% | 1010.8 hPa | - | - | - | - |
| 1778062892 | 14.44° C | 57% | 1010.8 hPa | - | - | - | - |
| 1778061092 | 13.89° C | 56% | 1010.8 hPa | - | - | - | - |
| 1778060192 | 13.89° C | 56% | 1010.6 hPa | - | - | - | - |
| 1778059292 | 13.33° C | 58% | 1010.7 hPa | - | - | - | - |
| 1778058392 | 13.33° C | 55% | 1010.7 hPa | - | - | - | - |
| 1778057492 | 12.78° C | 60% | 1010.8 hPa | - | - | - | - |
| 1778056592 | 13.33° C | 57% | 1010.6 hPa | - | - | - | - |
| 1778055692 | 12.22° C | 60% | 1010.4 hPa | - | - | - | - |
| 1778051191 | 10° C | 72% | 1010.4 hPa | - | - | - | - |
| 1778049391 | 10° C | 71% | 1010.4 hPa | - | - | - | - |
| 1778047591 | 8.89° C | 73% | 1010.6 hPa | - | - | - | - |
| 1778046691 | 9.44° C | 71% | 1010.4 hPa | - | - | - | - |
| 1778045793 | 8.89° C | 71% | 1010.2 hPa | - | - | - | - |
| 1778044891 | 9.44° C | 70% | 1010.5 hPa | - | - | - | - |
| 1778043991 | 8.89° C | 70% | 1010.3 hPa | - | - | - | - |
| 1778043091 | 8.89° C | 69% | 1010.3 hPa | - | - | - | - |
* Rain since midnight (hover to see other rain measurements)
** Current wind speed in m/s (hover to see current wind gust speed)